Time;durP1;ratioP1;P1;durP2;ratioP2;P2;SDS_P1;SDS_P2;PMS_P1;PMS_P2;Temp;Humidity;BMP_temperature;BMP_pressure;BME280_temperature;BME280_humidity;BME280_pressure;Samples;Min_cycle;Max_cycle;Signal;HPM_P1;HPM_P2
2024/02/25 00:00:38;;;;;;;;;;;;;;;8.78;100.00;101002.21;107953;1254;73927;-65
2024/02/25 00:03:06;;;;;;;;;;;;;;;8.78;100.00;100996.02;107959;1254;72709;-65
2024/02/25 00:05:34;;;;;;;;;;;;;;;8.78;100.00;100995.73;107918;1254;71133;-65
2024/02/25 00:08:03;;;;;;;;;;;;;;;8.78;100.00;100991.88;108016;1256;60313;-65
2024/02/25 00:10:30;;;;;;;;;;;;;;;8.76;100.00;100991.16;107878;1254;60248;-65
2024/02/25 00:12:58;;;;;;;;;;;;;;;8.74;100.00;100989.51;108034;1254;73844;-66
2024/02/25 00:15:26;;;;;;;;;;;;;;;8.72;100.00;100991.80;108022;1254;71659;-65
2024/02/25 00:17:53;;;;;;;;;;;;;;;8.69;100.00;100997.98;107979;1254;71414;-65
2024/02/25 00:20:21;;;;;;;;;;;;;;;8.68;100.00;100999.81;108123;1254;60680;-64
2024/02/25 00:22:50;;;;;;;;;;;;;;;8.66;100.00;100995.25;108138;1254;59486;-64
2024/02/25 00:25:18;;;;;;;;;;;;;;;8.65;100.00;101002.04;108033;1254;72637;-64
2024/02/25 00:27:46;;;;;;;;;;;;;;;8.64;100.00;100998.14;107996;1254;72254;-66
2024/02/25 00:30:14;;;;;;;;;;;;;;;8.63;100.00;100999.88;107993;1254;71406;-65
2024/02/25 00:32:41;;;;;;;;;;;;;;;8.61;100.00;101000.56;108073;1254;60310;-65
2024/02/25 00:35:09;;;;;;;;;;;;;;;8.58;100.00;101002.33;108057;1254;60434;-65
2024/02/25 00:37:38;;;;;;;;;;;;;;;8.56;100.00;100994.14;108065;1254;73931;-65
2024/02/25 00:40:06;;;;;;;;;;;;;;;8.54;99.90;100994.39;108072;1254;72137;-66
2024/02/25 00:42:33;;;;;;;;;;;;;;;8.52;99.68;100992.33;107987;1254;71198;-65
2024/02/25 00:45:01;;;;;;;;;;;;;;;8.50;99.39;100994.48;108017;1254;60705;-65
2024/02/25 00:47:31;;;;;;;;;;;;;;;8.49;98.80;100996.14;108165;1259;59023;-65
2024/02/25 00:50:02;;;;;;;;;;;;;;;8.47;98.41;100998.84;108202;1254;72392;-65
2024/02/25 00:52:33;;;;;;;;;;;;;;;8.45;98.25;100998.30;108091;1254;71782;-65
2024/02/25 00:55:01;;;;;;;;;;;;;;;8.42;98.03;100993.52;108011;1257;71527;-65
2024/02/25 00:57:28;;;;;;;;;;;;;;;8.41;97.71;100997.25;108107;1254;61237;-65
2024/02/25 00:59:56;;;;;;;;;;;;;;;8.39;97.41;100993.69;108138;1254;61122;-65
2024/02/25 01:02:24;;;;;;;;;;;;;;;8.38;97.36;100993.38;107926;1254;74663;-64
2024/02/25 01:04:52;;;;;;;;;;;;;;;8.36;97.33;100992.70;107959;1254;72735;-65
2024/02/25 01:07:20;;;;;;;;;;;;;;;8.36;97.42;100997.36;107880;1257;72729;-65
2024/02/25 01:09:47;;;;;;;;;;;;;;;8.35;97.49;100994.84;108076;1255;61897;-65
2024/02/25 01:12:15;;;;;;;;;;;;;;;8.35;97.74;101000.75;108080;1254;61017;-65
2024/02/25 01:14:44;;;;;;;;;;;;;;;8.34;97.83;101003.08;108023;1253;74659;-66
2024/02/25 01:17:11;;;;;;;;;;;;;;;8.35;97.94;101002.14;108150;1254;71571;-68
2024/02/25 01:19:39;;;;;;;;;;;;;;;8.35;97.77;101004.09;108079;1254;72674;-66
2024/02/25 01:22:07;;;;;;;;;;;;;;;8.35;97.60;101008.20;108007;1254;61043;-67
2024/02/25 01:24:35;;;;;;;;;;;;;;;8.34;97.39;101007.60;108004;1254;61150;-64
2024/02/25 01:27:03;;;;;;;;;;;;;;;8.33;97.22;101010.98;108087;1254;75632;-67
2024/02/25 01:29:31;;;;;;;;;;;;;;;8.33;96.96;101017.36;108123;1254;71486;-68
2024/02/25 01:31:59;;;;;;;;;;;;;;;8.32;96.72;101013.89;108100;1254;72799;-67
2024/02/25 01:34:28;;;;;;;;;;;;;;;8.30;96.44;101017.90;108167;1254;61338;-66
2024/02/25 01:36:56;;;;;;;;;;;;;;;8.28;96.17;101016.94;108114;1254;61104;-66
2024/02/25 01:39:23;;;;;;;;;;;;;;;8.26;95.96;101014.60;108135;1254;73428;-65
2024/02/25 01:41:53;;;;;;;;;;;;;;;8.25;95.87;101017.45;108101;1254;71582;-65
2024/02/25 01:44:21;;;;;;;;;;;;;;;8.22;95.67;101012.42;108253;1254;70822;-66
2024/02/25 01:46:48;;;;;;;;;;;;;;;8.21;95.78;101014.48;108026;1254;61269;-66
2024/02/25 01:49:16;;;;;;;;;;;;;;;8.20;95.77;101017.56;107934;1254;61221;-64
2024/02/25 01:51:45;;;;;;;;;;;;;;;8.20;95.90;101022.31;107857;1254;73452;-65
2024/02/25 01:54:13;;;;;;;;;;;;;;;8.19;96.01;101023.85;107915;1254;72732;-65
2024/02/25 01:56:40;;;;;;;;;;;;;;;8.17;96.29;101027.53;108035;1254;71765;-64
2024/02/25 01:59:08;;;;;;;;;;;;;;;8.19;96.37;101031.45;108021;1254;60650;-65
2024/02/25 02:01:36;;;;;;;;;;;;;;;8.19;96.36;101032.69;107938;1254;61177;-65
2024/02/25 02:04:04;;;;;;;;;;;;;;;8.17;96.35;101027.80;108101;1253;74667;-66
2024/02/25 02:06:34;;;;;;;;;;;;;;;8.11;96.54;101028.67;107987;1254;71617;-66
2024/02/25 02:09:01;;;;;;;;;;;;;;;8.09;96.91;101027.77;108025;1257;72495;-65
2024/02/25 02:11:29;;;;;;;;;;;;;;;8.09;97.09;101028.24;108091;1254;61009;-66
2024/02/25 02:13:57;;;;;;;;;;;;;;;8.12;97.06;101031.52;108124;1258;61247;-65
2024/02/25 02:16:25;;;;;;;;;;;;;;;8.13;97.36;101032.46;108116;1254;74641;-66
2024/02/25 02:18:53;;;;;;;;;;;;;;;8.10;97.77;101028.21;108082;1254;72481;-66
2024/02/25 02:21:23;;;;;;;;;;;;;;;8.06;98.15;101023.08;108045;1254;72717;-66
2024/02/25 02:23:53;;;;;;;;;;;;;;;8.08;98.42;101019.59;108066;1254;59814;-65
2024/02/25 02:26:21;;;;;;;;;;;;;;;8.08;98.38;101023.65;108101;1254;61438;-66
2024/02/25 02:28:48;;;;;;;;;;;;;;;8.08;98.64;101024.48;108030;1259;73365;-65
2024/02/25 02:31:16;;;;;;;;;;;;;;;8.08;98.69;101025.87;108062;1254;71782;-66
2024/02/25 02:33:45;;;;;;;;;;;;;;;8.08;98.78;101029.17;108057;1254;71359;-66
2024/02/25 02:36:13;;;;;;;;;;;;;;;8.09;98.75;101028.93;107972;1254;61056;-66
2024/02/25 02:38:41;;;;;;;;;;;;;;;8.06;98.95;101016.85;107893;1254;61019;-65
2024/02/25 02:41:10;;;;;;;;;;;;;;;8.09;98.70;101007.80;107961;1254;73606;-65
2024/02/25 02:43:37;;;;;;;;;;;;;;;8.09;98.86;101004.39;107997;1254;70700;-65
2024/02/25 02:46:09;;;;;;;;;;;;;;;8.09;98.94;101004.06;108020;1254;71787;-65
2024/02/25 02:48:37;;;;;;;;;;;;;;;8.09;99.12;100999.40;108021;1254;61096;-65
2024/02/25 02:51:05;;;;;;;;;;;;;;;8.08;99.30;101003.84;107926;1254;61097;-66
2024/02/25 02:53:33;;;;;;;;;;;;;;;8.09;99.52;101008.33;107902;1254;73390;-67
2024/02/25 02:56:00;;;;;;;;;;;;;;;8.10;99.56;101010.40;107922;1254;71805;-66
2024/02/25 02:58:28;;;;;;;;;;;;;;;8.11;99.46;101014.92;107883;1254;71217;-67
2024/02/25 03:00:56;;;;;;;;;;;;;;;8.13;99.60;101017.60;108083;1254;61134;-68
2024/02/25 03:03:24;;;;;;;;;;;;;;;8.15;99.37;101018.75;108141;1254;61257;-66
2024/02/25 03:05:51;;;;;;;;;;;;;;;8.15;99.11;101011.14;108110;1254;74552;-66
2024/02/25 03:08:19;;;;;;;;;;;;;;;8.16;98.92;101011.53;107973;1254;71418;-65
2024/02/25 03:10:47;;;;;;;;;;;;;;;8.14;98.86;101010.13;107951;1254;73877;-66
2024/02/25 03:13:14;;;;;;;;;;;;;;;8.13;98.86;101014.04;108007;1254;60981;-65
2024/02/25 03:15:42;;;;;;;;;;;;;;;8.13;98.94;101008.44;107921;1254;61385;-65
2024/02/25 03:18:10;;;;;;;;;;;;;;;8.13;99.20;101012.98;107864;1254;73382;-64
2024/02/25 03:20:37;;;;;;;;;;;;;;;8.14;99.28;101004.52;107929;1254;71773;-65
2024/02/25 03:23:05;;;;;;;;;;;;;;;8.15;99.22;101001.84;107877;1254;72681;-65
2024/02/25 03:25:33;;;;;;;;;;;;;;;8.16;98.97;101001.26;108040;1254;60053;-66
2024/02/25 03:28:01;;;;;;;;;;;;;;;8.16;98.90;101004.04;108084;1254;60981;-64
2024/02/25 03:30:28;;;;;;;;;;;;;;;8.17;98.93;101010.08;108029;1254;74718;-66
2024/02/25 03:33:00;;;;;;;;;;;;;;;8.16;98.90;101007.69;107931;1254;72726;-67
2024/02/25 03:35:31;;;;;;;;;;;;;;;8.15;98.60;101008.11;108044;1254;71164;-66
2024/02/25 03:38:00;;;;;;;;;;;;;;;8.14;98.43;101006.55;108084;1256;61000;-65
2024/02/25 03:40:28;;;;;;;;;;;;;;;8.11;98.25;101010.95;107998;1259;61234;-66
2024/02/25 03:42:56;;;;;;;;;;;;;;;8.11;98.27;101010.84;107943;1254;74695;-65
2024/02/25 03:45:23;;;;;;;;;;;;;;;8.11;98.22;101011.86;107898;1254;71130;-65
2024/02/25 03:47:51;;;;;;;;;;;;;;;8.09;98.29;101012.87;107883;1254;71490;-67
2024/02/25 03:50:19;;;;;;;;;;;;;;;8.06;98.32;101011.82;108135;1254;61108;-65
2024/02/25 03:52:47;;;;;;;;;;;;;;;8.03;98.33;101014.73;108017;1254;61230;-65
2024/02/25 03:55:14;;;;;;;;;;;;;;;8.02;98.56;101014.08;107883;1254;73481;-65
2024/02/25 03:57:42;;;;;;;;;;;;;;;8.01;98.37;101015.29;107926;1254;72816;-65
2024/02/25 04:00:10;;;;;;;;;;;;;;;7.97;98.19;101015.92;107906;1254;71715;-64
2024/02/25 04:02:38;;;;;;;;;;;;;;;7.96;98.30;101017.16;107879;1256;61317;-65
2024/02/25 04:05:07;;;;;;;;;;;;;;;7.95;98.33;101019.05;108089;1254;61893;-65
2024/02/25 04:07:34;;;;;;;;;;;;;;;7.92;98.36;101015.37;107995;1254;73605;-64
2024/02/25 04:10:02;;;;;;;;;;;;;;;7.91;98.34;101012.00;108161;1254;71703;-65
2024/02/25 04:12:30;;;;;;;;;;;;;;;7.90;98.44;101021.02;108107;1259;72780;-65
2024/02/25 04:14:57;;;;;;;;;;;;;;;7.89;98.28;101021.09;107906;1257;61122;-68
2024/02/25 04:17:26;;;;;;;;;;;;;;;7.85;98.38;101022.73;108133;1254;60030;-65
2024/02/25 04:19:54;;;;;;;;;;;;;;;7.82;98.59;101025.06;108132;1254;73445;-66
2024/02/25 04:22:22;;;;;;;;;;;;;;;7.81;98.72;101016.75;108133;1254;71258;-67
2024/02/25 04:24:50;;;;;;;;;;;;;;;7.81;98.51;101020.02;108011;1255;71247;-65
2024/02/25 04:27:18;;;;;;;;;;;;;;;7.77;98.35;101017.98;108162;1254;61241;-66
2024/02/25 04:29:45;;;;;;;;;;;;;;;7.74;97.97;101014.66;108156;1254;61122;-65
2024/02/25 04:32:14;;;;;;;;;;;;;;;7.69;97.77;101015.80;108191;1253;74733;-65
2024/02/25 04:34:42;;;;;;;;;;;;;;;7.66;97.81;101017.04;108183;1254;71685;-65
2024/02/25 04:37:09;;;;;;;;;;;;;;;7.64;97.87;101015.67;108162;1253;71410;-64
2024/02/25 04:39:38;;;;;;;;;;;;;;;7.63;97.93;101018.58;108133;1254;61769;-66
2024/02/25 04:42:06;;;;;;;;;;;;;;;7.62;97.94;101019.87;108112;1254;61049;-65
2024/02/25 04:44:34;;;;;;;;;;;;;;;7.62;97.88;101021.57;108141;1254;73777;-66
2024/02/25 04:47:01;;;;;;;;;;;;;;;7.61;97.77;101025.48;108089;1253;71534;-65
2024/02/25 04:49:29;;;;;;;;;;;;;;;7.60;97.71;101033.80;108150;1253;71152;-65
2024/02/25 04:51:57;;;;;;;;;;;;;;;7.61;97.65;101034.58;108162;1254;61535;-64
2024/02/25 04:54:25;;;;;;;;;;;;;;;7.61;97.32;101048.44;108154;1254;61231;-65
2024/02/25 04:56:54;;;;;;;;;;;;;;;7.60;97.03;101047.59;108209;1254;73681;-64
2024/02/25 04:59:22;;;;;;;;;;;;;;;7.58;96.81;101042.30;108225;1254;72758;-65
2024/02/25 05:01:49;;;;;;;;;;;;;;;7.58;96.62;101047.61;108201;1253;72492;-65
2024/02/25 05:04:17;;;;;;;;;;;;;;;7.59;96.48;101053.96;108197;1254;61189;-66
2024/02/25 05:06:45;;;;;;;;;;;;;;;7.59;96.35;101048.38;107882;1254;61098;-64
2024/02/25 05:09:13;;;;;;;;;;;;;;;7.58;96.22;101050.86;108126;1254;74695;-64
2024/02/25 05:11:40;;;;;;;;;;;;;;;7.58;96.12;101050.92;107913;1254;72289;-66
2024/02/25 05:14:08;;;;;;;;;;;;;;;7.59;95.94;101048.39;107877;1260;72747;-65
2024/02/25 05:16:36;;;;;;;;;;;;;;;7.58;95.59;101046.51;108084;1254;61116;-65
2024/02/25 05:19:03;;;;;;;;;;;;;;;7.56;95.15;101045.97;107926;1254;61219;-65
2024/02/25 05:21:32;;;;;;;;;;;;;;;7.53;94.87;101044.66;108049;1258;73401;-65
2024/02/25 05:23:59;;;;;;;;;;;;;;;7.48;94.54;101045.86;108077;1254;72993;-65
2024/02/25 05:26:27;;;;;;;;;;;;;;;7.45;94.54;101046.52;108037;1254;71405;-66
2024/02/25 05:28:55;;;;;;;;;;;;;;;7.43;94.73;101050.63;108072;1254;61207;-64
2024/02/25 05:31:23;;;;;;;;;;;;;;;7.44;94.75;101050.05;107978;1254;61713;-64
2024/02/25 05:33:50;;;;;;;;;;;;;;;7.45;94.58;101058.38;107894;1254;73434;-65
2024/02/25 05:36:22;;;;;;;;;;;;;;;7.46;94.25;101066.48;107965;1254;71564;-67
2024/02/25 05:38:50;;;;;;;;;;;;;;;7.48;94.10;101073.52;108130;1254;71399;-64
2024/02/25 05:41:18;;;;;;;;;;;;;;;7.52;93.57;101072.60;107933;1254;61133;-65
2024/02/25 05:43:46;;;;;;;;;;;;;;;7.53;92.79;101074.16;108150;1254;61064;-65
2024/02/25 05:46:14;;;;;;;;;;;;;;;7.54;92.13;101077.94;108072;1254;73249;-65
2024/02/25 05:48:43;;;;;;;;;;;;;;;7.56;91.81;101087.06;108114;1254;71716;-65
2024/02/25 05:51:12;;;;;;;;;;;;;;;7.58;91.29;101082.29;107887;1256;71479;-66
2024/02/25 05:53:39;;;;;;;;;;;;;;;7.60;90.56;101081.17;107967;1254;61254;-65
2024/02/25 05:56:09;;;;;;;;;;;;;;;7.62;90.06;101085.48;108030;1254;60948;-67
2024/02/25 05:58:37;;;;;;;;;;;;;;;7.65;89.75;101085.08;108130;1254;73683;-65
2024/02/25 06:01:08;;;;;;;;;;;;;;;7.67;89.53;101086.56;108129;1254;71605;-65
2024/02/25 06:03:36;;;;;;;;;;;;;;;7.68;89.09;101090.86;108077;1254;72717;-66
2024/02/25 06:06:17;;;;;;;;;;;;;;;7.69;88.76;101087.70;107911;1256;61228;-65
2024/02/25 06:09:11;;;;;;;;;;;;;;;7.70;88.85;101091.38;108004;1254;61105;-65
2024/02/25 06:12:03;;;;;;;;;;;;;;;7.69;89.12;101093.23;108041;1254;76725;-65
2024/02/25 06:14:52;;;;;;;;;;;;;;;7.68;89.51;101101.07;108063;1254;73260;-65
2024/02/25 06:17:46;;;;;;;;;;;;;;;7.67;89.85;101091.64;108086;1254;71419;-65
2024/02/25 06:20:47;;;;;;;;;;;;;;;7.64;89.86;101089.73;108057;1254;61224;-64
2024/02/25 06:23:48;;;;;;;;;;;;;;;7.62;89.84;101092.71;108067;1253;61116;-65
2024/02/25 06:26:48;;;;;;;;;;;;;;;7.62;89.34;101092.30;108099;1254;74009;-65
2024/02/25 06:29:49;;;;;;;;;;;;;;;7.64;88.49;101091.30;108138;1254;71293;-65
2024/02/25 06:32:50;;;;;;;;;;;;;;;7.67;87.32;101090.61;108105;1254;73201;-66
2024/02/25 06:39:00;;;;;;;;;;;;;;;7.70;85.14;101088.69;108130;1254;61320;-65
2024/02/25 06:41:40;;;;;;;;;;;;;;;7.72;84.57;101089.27;108081;1253;72395;-69
2024/02/25 06:44:21;;;;;;;;;;;;;;;7.73;83.77;101089.50;108144;1254;72716;-65
2024/02/25 06:46:58;;;;;;;;;;;;;;;7.74;83.38;101092.73;108088;1254;71516;-65
2024/02/25 06:49:46;;;;;;;;;;;;;;;7.76;82.97;101093.02;108098;1254;61142;-64
2024/02/25 06:52:14;;;;;;;;;;;;;;;7.79;82.60;101096.71;108095;1253;61260;-67
2024/02/25 06:54:43;;;;;;;;;;;;;;;7.79;81.80;101089.50;108115;1254;73571;-66
2024/02/25 06:57:15;;;;;;;;;;;;;;;7.81;81.06;101089.61;108001;1253;71280;-69
2024/02/25 06:59:43;;;;;;;;;;;;;;;7.81;80.35;101084.13;108149;1254;71843;-65
2024/02/25 07:02:11;;;;;;;;;;;;;;;7.82;79.73;101081.60;108156;1254;61183;-67
2024/02/25 07:04:39;;;;;;;;;;;;;;;7.83;79.16;101079.02;108165;1254;61116;-66
2024/02/25 07:07:06;;;;;;;;;;;;;;;7.83;78.59;101076.32;108181;1253;73624;-66
2024/02/25 07:09:34;;;;;;;;;;;;;;;7.85;78.09;101065.83;108132;1254;73184;-66
2024/02/25 07:12:01;;;;;;;;;;;;;;;7.87;77.76;101068.64;108096;1254;71252;-64
2024/02/25 07:14:30;;;;;;;;;;;;;;;7.90;77.41;101072.34;108117;1256;60371;-65
2024/02/25 07:16:58;;;;;;;;;;;;;;;7.93;77.02;101073.05;108101;1254;61250;-65
2024/02/25 07:19:26;;;;;;;;;;;;;;;7.95;76.53;101080.83;107974;1253;73299;-65
2024/02/25 07:21:54;;;;;;;;;;;;;;;7.95;75.96;101078.27;108105;1253;71891;-65
2024/02/25 07:24:22;;;;;;;;;;;;;;;7.94;75.62;101080.88;108165;1254;71329;-65
2024/02/25 07:26:51;;;;;;;;;;;;;;;7.92;75.15;101079.63;108097;1254;61920;-66
2024/02/25 07:29:18;;;;;;;;;;;;;;;7.88;74.72;101083.00;108005;1254;207963;-66
2024/02/25 07:31:46;;;;;;;;;;;;;;;7.84;74.67;101085.02;108145;1253;73361;-67
2024/02/25 07:34:13;;;;;;;;;;;;;;;7.81;75.29;101095.29;108088;1254;72735;-66
2024/02/25 07:36:41;;;;;;;;;;;;;;;7.77;76.08;101098.49;108139;1254;70959;-66
2024/02/25 07:39:10;;;;;;;;;;;;;;;7.73;76.95;101100.72;108095;1254;61091;-65
2024/02/25 07:41:39;;;;;;;;;;;;;;;7.69;77.71;101099.20;108077;1254;60750;-66
2024/02/25 07:44:07;;;;;;;;;;;;;;;7.68;78.25;101098.67;108075;1254;74809;-65
2024/02/25 07:46:35;;;;;;;;;;;;;;;7.69;78.67;101098.51;108046;1254;72938;-64
2024/02/25 07:49:03;;;;;;;;;;;;;;;7.74;78.90;101102.45;107897;1254;71144;-66
2024/02/25 07:51:35;;;;;;;;;;;;;;;7.79;79.00;101101.25;107931;1254;62814;-65
2024/02/25 07:54:03;;;;;;;;;;;;;;;7.85;78.95;101098.55;107927;1254;61113;-65
2024/02/25 07:56:31;;;;;;;;;;;;;;;7.89;78.96;101096.78;108069;1253;73397;-65
2024/02/25 07:58:59;;;;;;;;;;;;;;;7.93;78.87;101100.08;108177;1259;72582;-68
2024/02/25 08:01:27;;;;;;;;;;;;;;;7.95;78.44;101099.02;108094;1254;75118;-67
2024/02/25 08:03:55;;;;;;;;;;;;;;;7.96;77.96;101099.73;108076;1253;61291;-66
2024/02/25 08:06:25;;;;;;;;;;;;;;;7.96;77.37;101095.58;108149;1253;61246;-65
2024/02/25 08:08:54;;;;;;;;;;;;;;;7.95;76.93;101097.17;108114;1254;73390;-65
2024/02/25 08:11:22;;;;;;;;;;;;;;;7.96;76.44;101099.88;108235;1254;72645;-66
2024/02/25 08:13:50;;;;;;;;;;;;;;;7.98;75.99;101093.95;108107;1254;72698;-66
2024/02/25 08:16:21;;;;;;;;;;;;;;;8.02;75.64;101098.56;108101;1254;61081;-67
2024/02/25 08:18:53;;;;;;;;;;;;;;;8.10;75.41;101091.38;108158;1254;60121;-68
2024/02/25 08:21:22;;;;;;;;;;;;;;;8.17;74.64;101096.95;108129;1253;75209;-66
2024/02/25 08:23:50;;;;;;;;;;;;;;;8.25;74.03;101100.06;108083;1254;71630;-65
2024/02/25 08:26:17;;;;;;;;;;;;;;;8.32;73.48;101100.77;108089;1254;72668;-65
2024/02/25 08:28:45;;;;;;;;;;;;;;;8.39;72.55;101097.34;108123;1256;61096;-65
2024/02/25 08:31:13;;;;;;;;;;;;;;;8.45;72.12;101094.88;108132;1254;61084;-67
2024/02/25 08:33:40;;;;;;;;;;;;;;;8.50;71.47;101095.42;108109;1254;75142;-65
2024/02/25 08:36:09;;;;;;;;;;;;;;;8.54;71.01;101095.30;108090;1254;71444;-67
2024/02/25 08:38:43;;;;;;;;;;;;;;;8.58;70.64;101093.75;108154;1254;71374;-67
2024/02/25 08:41:10;;;;;;;;;;;;;;;8.64;70.42;101089.23;108163;1254;61086;-66
2024/02/25 08:43:38;;;;;;;;;;;;;;;8.72;70.21;101093.59;108200;1254;60272;-67
2024/02/25 08:46:06;;;;;;;;;;;;;;;8.80;69.60;101092.77;108127;1254;75241;-65
2024/02/25 08:48:33;;;;;;;;;;;;;;;8.86;69.17;101093.77;108031;1254;71784;-65
2024/02/25 08:51:02;;;;;;;;;;;;;;;8.95;68.75;101094.39;108072;1254;72830;-69
2024/02/25 08:53:30;;;;;;;;;;;;;;;9.02;67.95;101092.26;108028;1254;61447;-67
2024/02/25 08:55:57;;;;;;;;;;;;;;;9.11;67.66;101084.55;108054;1254;62050;-68
2024/02/25 08:58:25;;;;;;;;;;;;;;;9.24;67.71;101081.96;108172;1253;74453;-66
2024/02/25 09:00:53;;;;;;;;;;;;;;;9.38;67.15;101078.02;108052;1254;71779;-67
2024/02/25 09:03:20;;;;;;;;;;;;;;;9.52;66.07;101072.38;108032;1256;74908;-67
2024/02/25 09:06:04;;;;;;;;;;;;;;;9.62;64.91;101077.02;107898;1254;61228;-66
2024/02/25 09:08:32;;;;;;;;;;;;;;;9.71;64.26;101080.36;108044;1254;60316;-64
2024/02/25 09:11:00;;;;;;;;;;;;;;;9.76;63.53;101082.58;108087;1253;73374;-66
2024/02/25 09:13:28;;;;;;;;;;;;;;;9.82;63.48;101082.66;108159;1253;71183;-63
2024/02/25 09:15:55;;;;;;;;;;;;;;;9.90;63.33;101085.63;108071;1254;72859;-65
2024/02/25 09:18:23;;;;;;;;;;;;;;;9.98;63.19;101093.25;107965;1260;61094;-65
2024/02/25 09:20:51;;;;;;;;;;;;;;;10.09;63.34;101095.52;108110;1259;60065;-66
2024/02/25 09:23:19;;;;;;;;;;;;;;;10.17;62.63;101095.33;107778;1254;74600;-65
2024/02/25 09:25:46;;;;;;;;;;;;;;;10.22;62.57;101094.89;108190;1255;71557;-67
2024/02/25 09:28:18;;;;;;;;;;;;;;;10.24;62.09;101099.09;108000;1257;74907;-67
2024/02/25 09:30:46;;;;;;;;;;;;;;;10.19;61.62;101102.36;108080;1254;61233;-68
2024/02/25 09:33:14;;;;;;;;;;;;;;;10.14;61.46;101101.58;108059;1253;60081;-68
2024/02/25 09:35:42;;;;;;;;;;;;;;;10.09;61.42;101099.58;108141;1254;74886;-66
2024/02/25 09:38:10;;;;;;;;;;;;;;;10.02;61.32;101095.84;108095;1254;73860;-67
2024/02/25 09:40:38;;;;;;;;;;;;;;;9.95;61.34;101092.06;108136;1256;74887;-66
2024/02/25 09:43:07;;;;;;;;;;;;;;;9.87;61.41;101090.91;108006;1254;61090;-68
2024/02/25 09:45:35;;;;;;;;;;;;;;;9.79;61.59;101084.15;108116;1254;61099;-66
2024/02/25 09:48:03;;;;;;;;;;;;;;;9.71;61.75;101074.71;108080;1254;74470;-66
2024/02/25 09:50:33;;;;;;;;;;;;;;;9.66;61.92;101069.39;108145;1255;72563;-66
2024/02/25 09:53:01;;;;;;;;;;;;;;;9.59;62.22;101069.54;108022;1261;74673;-66
2024/02/25 09:55:28;;;;;;;;;;;;;;;9.55;62.37;101065.09;108202;1254;61078;-66
2024/02/25 09:57:56;;;;;;;;;;;;;;;9.53;62.72;101058.44;108087;1259;61135;-66
2024/02/25 10:00:24;;;;;;;;;;;;;;;9.53;62.91;101058.73;107768;1254;76825;-66
2024/02/25 10:02:52;;;;;;;;;;;;;;;9.54;63.08;101058.17;107990;1255;71864;-66
2024/02/25 10:05:20;;;;;;;;;;;;;;;9.54;63.32;101057.08;107959;1260;72523;-68
2024/02/25 10:08:04;;;;;;;;;;;;;;;9.53;63.18;101056.19;108029;1255;61157;-66
2024/02/25 10:10:32;;;;;;;;;;;;;;;9.50;63.48;101056.83;108101;1254;61155;-67
2024/02/25 10:13:03;;;;;;;;;;;;;;;9.51;63.89;101053.80;108150;1254;74078;-66
2024/02/25 10:15:31;;;;;;;;;;;;;;;9.51;63.71;101047.77;108020;1256;71850;-65
2024/02/25 10:17:58;;;;;;;;;;;;;;;9.51;64.05;101047.30;108042;1255;75059;-66
2024/02/25 10:20:26;;;;;;;;;;;;;;;9.53;64.24;101045.63;108071;1254;60405;-65
2024/02/25 10:23:07;;;;;;;;;;;;;;;9.59;64.34;101042.55;108140;1254;61120;-65
2024/02/25 10:25:35;;;;;;;;;;;;;;;9.67;64.42;101045.15;108058;1254;72980;-65
2024/02/25 10:28:13;;;;;;;;;;;;;;;9.75;64.30;101042.79;108120;1253;72012;-65
2024/02/25 10:30:56;;;;;;;;;;;;;;;9.81;64.29;101042.77;108066;1254;74940;-67
2024/02/25 10:33:23;;;;;;;;;;;;;;;9.88;64.16;101039.53;107935;1254;61424;-66
2024/02/25 10:35:52;;;;;;;;;;;;;;;9.93;63.88;101040.65;108024;1254;61228;-67
2024/02/25 10:38:20;;;;;;;;;;;;;;;9.95;63.57;101040.84;108153;1257;73621;-66
2024/02/25 10:40:48;;;;;;;;;;;;;;;9.94;63.55;101042.38;108139;1253;72938;-67
2024/02/25 10:43:16;;;;;;;;;;;;;;;9.92;63.77;101045.04;108074;1254;71388;-66
2024/02/25 10:45:43;;;;;;;;;;;;;;;9.86;64.30;101047.52;107985;1256;61228;-66
2024/02/25 10:48:11;;;;;;;;;;;;;;;9.76;65.25;101047.33;107977;1255;62064;-66
2024/02/25 10:50:39;;;;;;;;;;;;;;;9.63;66.17;101041.86;108057;1253;76909;-66
2024/02/25 10:53:07;;;;;;;;;;;;;;;9.52;67.06;101043.79;107972;1257;75100;-66
2024/02/25 10:55:35;;;;;;;;;;;;;;;9.41;67.68;101041.23;108059;1257;73184;-65
2024/02/25 10:58:03;;;;;;;;;;;;;;;9.30;68.09;101039.57;108010;1254;61663;-68
2024/02/25 11:00:31;;;;;;;;;;;;;;;9.23;68.79;101037.58;108055;1254;61106;-66
2024/02/25 11:02:58;;;;;;;;;;;;;;;9.15;69.51;101039.13;108005;1254;75081;-66
2024/02/25 11:05:28;;;;;;;;;;;;;;;9.06;69.95;101041.22;108002;1259;72006;-65
2024/02/25 11:07:59;;;;;;;;;;;;;;;8.99;70.83;101043.90;108118;1256;72552;-66
2024/02/25 11:10:31;;;;;;;;;;;;;;;8.93;71.69;101036.69;108018;1254;63095;-66
2024/02/25 11:13:02;;;;;;;;;;;;;;;8.89;72.67;101039.42;108111;1254;61590;-66
2024/02/25 11:15:30;;;;;;;;;;;;;;;8.87;73.54;101039.39;108161;1254;76926;-66
2024/02/25 11:18:00;;;;;;;;;;;;;;;8.86;74.02;101041.72;108118;1254;73120;-67
2024/02/25 11:20:30;;;;;;;;;;;;;;;8.87;74.05;101044.71;108007;1256;74875;-66
2024/02/25 11:22:58;;;;;;;;;;;;;;;8.85;74.24;101044.45;107954;1254;60495;-66
2024/02/25 11:25:25;;;;;;;;;;;;;;;8.82;74.42;101041.95;107970;1254;62123;-66
2024/02/25 11:28:00;;;;;;;;;;;;;;;8.80;74.71;101046.44;108055;1257;75128;-65
2024/02/25 11:30:37;;;;;;;;;;;;;;;8.77;75.32;101045.71;107948;1259;74866;-67
2024/02/25 11:33:25;;;;;;;;;;;;;;;8.71;76.33;101041.64;108021;1257;75460;-68
2024/02/25 11:35:59;;;;;;;;;;;;;;;8.62;77.92;101034.00;108018;1256;61246;-67
2024/02/25 11:38:27;;;;;;;;;;;;;;;8.53;80.44;101033.79;107950;1257;60971;-65
2024/02/25 11:40:55;;;;;;;;;;;;;;;8.42;83.11;101030.17;108030;1257;75762;-67
2024/02/25 11:43:26;;;;;;;;;;;;;;;8.33;85.81;101025.95;108055;1257;72542;-65
2024/02/25 11:45:54;;;;;;;;;;;;;;;8.30;88.03;101023.67;107951;1256;73071;-68
2024/02/25 11:48:22;;;;;;;;;;;;;;;8.29;90.38;101019.73;108041;1254;61244;-67
2024/02/25 11:50:50;;;;;;;;;;;;;;;8.26;92.23;101017.42;108153;1255;62065;-65
2024/02/25 11:53:18;;;;;;;;;;;;;;;8.23;93.02;101023.73;108044;1254;76095;-65
2024/02/25 11:55:47;;;;;;;;;;;;;;;8.19;93.29;101030.85;108068;1254;74766;-66
2024/02/25 11:58:15;;;;;;;;;;;;;;;8.18;93.67;101033.35;108065;1257;74929;-66
2024/02/25 12:00:42;;;;;;;;;;;;;;;8.19;94.21;101035.35;108007;1257;61212;-65
2024/02/25 12:03:11;;;;;;;;;;;;;;;8.20;94.87;101038.33;108057;1256;61123;-67
2024/02/25 12:05:39;;;;;;;;;;;;;;;8.20;94.88;101039.48;108053;1257;76043;-67
2024/02/25 12:08:06;;;;;;;;;;;;;;;8.21;95.63;101044.89;107947;1257;75094;-67
2024/02/25 12:10:36;;;;;;;;;;;;;;;8.25;96.32;101043.89;108011;1256;74931;-67
2024/02/25 12:13:05;;;;;;;;;;;;;;;8.29;97.09;101045.81;107986;1255;64000;-66
2024/02/25 12:15:32;;;;;;;;;;;;;;;8.30;97.69;101048.23;107961;1259;61163;-67
2024/02/25 12:18:02;;;;;;;;;;;;;;;8.31;98.65;101048.25;107916;1254;74495;-66
2024/02/25 12:20:31;;;;;;;;;;;;;;;8.32;98.71;101039.96;108129;1254;74263;-66
2024/02/25 12:23:00;;;;;;;;;;;;;;;8.31;98.45;101039.20;108048;1256;75001;-65
2024/02/25 12:25:28;;;;;;;;;;;;;;;8.30;98.91;101040.52;108071;1256;61216;-66
2024/02/25 12:28:05;;;;;;;;;;;;;;;8.30;99.97;101040.66;108018;1254;61780;-66
2024/02/25 12:30:37;;;;;;;;;;;;;;;8.28;100.00;101045.04;108032;1257;76895;-67
2024/02/25 12:33:06;;;;;;;;;;;;;;;8.22;100.00;101046.02;108063;1254;72689;-66
2024/02/25 12:35:36;;;;;;;;;;;;;;;8.15;100.00;101045.84;108064;1257;71515;-66
2024/02/25 12:38:04;;;;;;;;;;;;;;;8.08;100.00;101043.96;107983;1256;61405;-66
2024/02/25 12:40:32;;;;;;;;;;;;;;;8.00;100.00;101040.46;108045;1254;62283;-66
2024/02/25 12:42:59;;;;;;;;;;;;;;;7.95;100.00;101044.14;108059;1257;76797;-67
2024/02/25 12:45:28;;;;;;;;;;;;;;;7.92;100.00;101047.88;108000;1257;73121;-67
2024/02/25 12:47:56;;;;;;;;;;;;;;;7.86;100.00;101047.35;108097;1259;74831;-67
2024/02/25 12:50:24;;;;;;;;;;;;;;;7.82;100.00;101046.39;107971;1256;62170;-66